createdAt,value
2018-07-17T00:00:15.139Z,0.00
2018-07-17T00:01:15.282Z,0.00
2018-07-17T00:02:15.420Z,0.00
2018-07-17T00:03:15.564Z,0.00
2018-07-17T00:04:15.700Z,0.00
2018-07-17T00:05:15.838Z,0.00
2018-07-17T00:06:15.974Z,0.00
2018-07-17T00:07:16.112Z,0.00
2018-07-17T00:08:16.281Z,0.00
2018-07-17T00:09:16.415Z,0.00
2018-07-17T00:10:16.557Z,0.00
2018-07-17T00:11:16.706Z,0.00
2018-07-17T00:12:16.884Z,0.00
2018-07-17T00:13:17.011Z,0.00
2018-07-17T00:14:17.153Z,0.00
2018-07-17T00:15:17.294Z,0.00
2018-07-17T00:16:17.433Z,0.00
2018-07-17T00:17:17.562Z,0.00
2018-07-17T00:18:18.487Z,0.00
2018-07-17T00:19:17.783Z,0.00
2018-07-17T00:20:17.937Z,0.00
2018-07-17T00:21:18.076Z,0.00
2018-07-17T00:22:18.213Z,0.00
2018-07-17T00:23:18.357Z,0.00
2018-07-17T00:24:18.494Z,0.00
2018-07-17T00:25:18.626Z,0.00
2018-07-17T00:26:18.764Z,0.00
2018-07-17T00:27:18.912Z,0.00
2018-07-17T00:28:19.054Z,0.00
2018-07-17T00:29:19.189Z,0.00
2018-07-17T00:30:19.330Z,0.00
2018-07-17T00:31:19.466Z,0.00
2018-07-17T00:32:19.613Z,0.00
2018-07-17T00:33:19.748Z,0.00
2018-07-17T00:34:19.900Z,0.00
2018-07-17T00:35:20.037Z,0.00
2018-07-17T00:36:20.180Z,0.00
2018-07-17T00:37:20.324Z,0.00
2018-07-17T00:38:20.466Z,0.00
2018-07-17T00:39:20.596Z,0.00
2018-07-17T00:40:20.749Z,0.00
2018-07-17T00:41:20.881Z,0.00
2018-07-17T00:42:21.023Z,0.00
2018-07-17T00:43:21.201Z,0.00
2018-07-17T00:44:21.298Z,0.00
2018-07-17T00:45:21.438Z,0.00
2018-07-17T00:46:21.578Z,0.00
2018-07-17T00:47:21.719Z,0.00
2018-07-17T00:48:21.864Z,0.00
2018-07-17T00:49:21.997Z,0.00
2018-07-17T00:50:22.142Z,0.00
2018-07-17T00:51:22.300Z,0.00
2018-07-17T00:52:22.482Z,0.00
2018-07-17T00:53:22.592Z,0.00
2018-07-17T00:54:22.735Z,0.00
2018-07-17T00:55:22.907Z,0.00
2018-07-17T00:56:23.016Z,0.00
2018-07-17T00:57:23.154Z,0.00
2018-07-17T00:58:23.330Z,0.00
2018-07-17T00:59:23.537Z,0.00
2018-07-17T01:00:23.622Z,0.00
2018-07-17T01:01:23.634Z,0.00
2018-07-17T01:02:23.771Z,0.00
2018-07-17T01:03:23.961Z,0.00
2018-07-17T01:04:24.080Z,0.00
2018-07-17T01:05:24.222Z,0.00
2018-07-17T01:06:24.379Z,0.00
2018-07-17T01:07:24.554Z,0.00
2018-07-17T01:08:24.704Z,0.00
2018-07-17T01:09:24.893Z,0.00
2018-07-17T01:10:24.930Z,0.00
2018-07-17T01:11:25.071Z,0.00
2018-07-17T01:12:25.220Z,0.00
2018-07-17T01:13:25.352Z,0.00
2018-07-17T01:14:25.486Z,0.00
2018-07-17T01:15:25.623Z,0.00
2018-07-17T01:16:25.771Z,0.00
2018-07-17T01:17:25.899Z,0.00
2018-07-17T01:18:26.076Z,0.00
2018-07-17T01:19:26.185Z,0.00
2018-07-17T01:20:26.326Z,0.00
2018-07-17T01:21:26.476Z,0.00
2018-07-17T01:22:26.623Z,0.00
2018-07-17T01:23:26.780Z,0.00
2018-07-17T01:24:26.926Z,0.00
2018-07-17T01:26:59.512Z,0.00
2018-07-17T01:27:58.975Z,0.00
2018-07-17T01:28:59.115Z,0.00
2018-07-17T01:29:59.258Z,0.00
2018-07-17T01:30:59.402Z,0.00
2018-07-17T01:31:59.541Z,0.00
2018-07-17T01:32:59.685Z,0.00
2018-07-17T01:33:59.828Z,0.00
2018-07-17T01:34:59.967Z,0.00
2018-07-17T01:36:00.108Z,0.00
2018-07-17T01:37:00.250Z,0.00
2018-07-17T01:38:00.389Z,0.00
2018-07-17T01:39:00.531Z,0.00
2018-07-17T01:40:00.667Z,0.00
2018-07-17T01:41:00.814Z,0.00
2018-07-17T01:42:00.946Z,0.00
2018-07-17T01:43:01.132Z,0.00
2018-07-17T01:44:01.223Z,0.00
2018-07-17T01:45:01.362Z,0.00
2018-07-17T01:46:01.505Z,0.00
2018-07-17T01:47:01.654Z,0.00
2018-07-17T01:48:01.791Z,0.00
2018-07-17T01:49:01.941Z,0.00
2018-07-17T01:50:02.083Z,0.00
2018-07-17T01:51:02.222Z,0.00
2018-07-17T01:52:02.366Z,0.00
2018-07-17T01:53:02.510Z,0.00
2018-07-17T01:54:02.648Z,0.00
2018-07-17T01:55:02.790Z,0.00
2018-07-17T01:56:02.928Z,0.00
2018-07-17T01:57:03.072Z,0.00
2018-07-17T01:58:03.256Z,0.00
2018-07-17T01:59:03.392Z,0.00
2018-07-17T02:00:03.566Z,0.00
2018-07-17T02:01:03.706Z,0.00
2018-07-17T02:02:03.845Z,0.00
2018-07-17T02:03:03.985Z,0.00
2018-07-17T02:04:04.147Z,0.00
2018-07-17T02:05:04.265Z,0.00
2018-07-17T02:06:04.408Z,0.00
2018-07-17T02:07:04.541Z,0.00
2018-07-17T02:08:04.714Z,0.00
2018-07-17T02:09:04.834Z,0.00
2018-07-17T02:10:04.978Z,0.00
2018-07-17T02:11:05.122Z,0.00
2018-07-17T02:12:05.331Z,0.00
2018-07-17T02:13:05.416Z,0.00
2018-07-17T02:14:05.556Z,0.00
2018-07-17T02:15:05.704Z,0.00
2018-07-17T02:16:05.785Z,0.00
2018-07-17T02:17:05.937Z,0.00
2018-07-17T02:18:06.142Z,0.00
2018-07-17T02:19:06.238Z,0.00
2018-07-17T02:20:06.379Z,0.00
2018-07-17T02:21:06.578Z,0.00
2018-07-17T02:22:06.619Z,0.00
2018-07-17T02:23:06.805Z,0.00
2018-07-17T02:24:06.968Z,0.00
2018-07-17T02:25:07.113Z,0.00
2018-07-17T02:26:07.245Z,0.00
2018-07-17T02:27:07.392Z,0.00
2018-07-17T02:28:07.533Z,0.00
2018-07-17T02:29:07.674Z,0.00
2018-07-17T02:30:07.815Z,0.00
2018-07-17T02:31:07.952Z,0.00
2018-07-17T02:32:08.094Z,0.00
2018-07-17T02:33:08.226Z,0.00
2018-07-17T02:34:08.363Z,0.00
2018-07-17T02:35:08.499Z,0.00
2018-07-17T02:36:08.639Z,0.00
2018-07-17T02:37:08.772Z,0.00
2018-07-17T02:38:08.906Z,0.00
2018-07-17T02:39:09.049Z,0.00
2018-07-17T02:40:09.174Z,0.00
2018-07-17T02:41:09.323Z,0.00
2018-07-17T02:42:09.477Z,0.00
2018-07-17T02:43:09.604Z,0.00
2018-07-17T02:44:09.982Z,0.00
2018-07-17T02:45:09.886Z,0.00
2018-07-17T02:46:10.026Z,0.00
2018-07-17T02:47:10.159Z,0.00
2018-07-17T02:48:10.300Z,0.00
2018-07-17T02:49:10.442Z,0.00
2018-07-17T02:50:10.573Z,0.00
2018-07-17T02:51:10.726Z,0.00
2018-07-17T02:52:10.864Z,0.00
2018-07-17T02:53:11.004Z,0.00
2018-07-17T02:54:11.147Z,0.00
2018-07-17T02:55:11.286Z,0.00
2018-07-17T02:56:11.423Z,0.00
2018-07-17T02:57:11.564Z,0.00
2018-07-17T02:58:11.712Z,0.00
2018-07-17T02:59:11.867Z,4.00
2018-07-17T03:00:12.009Z,4.00
2018-07-17T03:01:12.142Z,4.00
2018-07-17T03:02:12.284Z,0.00
2018-07-17T03:03:12.410Z,4.00
2018-07-17T03:04:12.535Z,4.00
2018-07-17T03:05:12.676Z,8.00
2018-07-17T03:06:12.822Z,4.00
2018-07-17T03:07:13.056Z,8.00
2018-07-17T03:08:13.059Z,4.00
2018-07-17T03:09:13.196Z,8.00
2018-07-17T03:10:13.331Z,8.00
2018-07-17T03:11:13.490Z,12.00
2018-07-17T03:12:13.625Z,12.00
2018-07-17T03:13:13.767Z,12.00
2018-07-17T03:14:13.922Z,12.00
2018-07-17T03:15:14.057Z,16.00
2018-07-17T03:16:14.208Z,20.00
2018-07-17T03:17:14.337Z,20.00
2018-07-17T03:18:14.481Z,24.00
2018-07-17T03:19:14.626Z,24.00
2018-07-17T03:20:14.761Z,32.00
2018-07-17T03:21:14.903Z,32.00
2018-07-17T03:22:15.044Z,36.00
2018-07-17T03:23:15.186Z,44.00
2018-07-17T03:24:15.327Z,44.00
2018-07-17T03:25:15.462Z,52.00
2018-07-17T03:26:15.598Z,56.00
2018-07-17T03:27:15.760Z,60.00
2018-07-17T03:28:15.889Z,68.00
2018-07-17T03:29:16.025Z,72.00
2018-07-17T03:30:16.166Z,80.00
2018-07-17T03:31:16.321Z,88.00
2018-07-17T03:32:16.450Z,96.00
2018-07-17T03:33:16.590Z,104.00
2018-07-17T03:34:16.734Z,108.00
2018-07-17T03:35:16.868Z,120.00
2018-07-17T03:36:17.023Z,128.00
2018-07-17T03:37:17.143Z,136.00
2018-07-17T03:38:17.287Z,144.00
2018-07-17T03:39:17.426Z,152.00
2018-07-17T03:40:17.559Z,164.00
2018-07-17T03:41:17.699Z,172.00
2018-07-17T03:42:17.835Z,184.00
2018-07-17T03:43:17.979Z,192.00
2018-07-17T03:44:18.116Z,204.00
2018-07-17T03:45:18.275Z,212.00
2018-07-17T03:46:18.417Z,224.00
2018-07-17T03:47:18.557Z,232.00
2018-07-17T03:48:18.760Z,240.00
2018-07-17T03:49:18.774Z,252.00
2018-07-17T03:50:18.915Z,264.00
2018-07-17T03:51:19.049Z,272.00
2018-07-17T03:52:19.191Z,284.00
2018-07-17T03:53:19.326Z,300.00
2018-07-17T03:54:19.464Z,312.00
2018-07-17T03:55:19.610Z,320.00
2018-07-17T03:56:19.739Z,332.00
2018-07-17T03:57:19.881Z,344.00
2018-07-17T03:58:20.022Z,352.00
2018-07-17T03:59:20.166Z,368.00
2018-07-17T04:00:20.301Z,380.00
2018-07-17T04:01:20.455Z,392.00
2018-07-17T04:02:20.579Z,404.00
2018-07-17T04:03:20.719Z,416.00
2018-07-17T04:04:20.937Z,428.00
2018-07-17T04:05:21.025Z,436.00
2018-07-17T04:06:21.167Z,452.00
2018-07-17T04:07:21.314Z,460.00
2018-07-17T04:08:21.471Z,468.00
2018-07-17T04:09:21.608Z,484.00
2018-07-17T04:10:21.744Z,496.00
2018-07-17T04:11:21.885Z,504.00
2018-07-17T04:12:22.030Z,516.00
2018-07-17T04:13:22.244Z,532.00
2018-07-17T04:14:22.307Z,544.00
2018-07-17T04:15:22.466Z,552.00
2018-07-17T04:16:22.599Z,564.00
2018-07-17T04:17:22.734Z,576.00
2018-07-17T04:18:22.880Z,588.00
2018-07-17T04:19:23.103Z,600.00
2018-07-17T04:20:23.164Z,612.00
2018-07-17T04:21:23.305Z,624.00
2018-07-17T04:22:23.452Z,632.00
2018-07-17T04:23:23.573Z,636.00
2018-07-17T04:24:23.712Z,648.00
2018-07-17T04:25:23.849Z,656.00
2018-07-17T04:26:23.998Z,668.00
2018-07-17T04:27:24.139Z,664.00
2018-07-17T04:28:24.271Z,664.00
2018-07-17T04:29:24.420Z,668.00
2018-07-17T04:30:24.562Z,672.00
2018-07-17T04:31:24.689Z,676.00
2018-07-17T04:32:24.834Z,676.00
2018-07-17T04:33:24.973Z,684.00
2018-07-17T04:34:25.122Z,696.00
2018-07-17T04:35:25.288Z,708.00
2018-07-17T04:36:25.401Z,720.00
2018-07-17T04:37:25.538Z,732.00
2018-07-17T04:38:25.820Z,748.00
2018-07-17T04:39:25.840Z,784.00
2018-07-17T04:40:25.986Z,768.00
2018-07-17T04:41:26.174Z,776.00
2018-07-17T04:42:26.298Z,780.00
2018-07-17T04:43:26.440Z,792.00
2018-07-17T04:44:27.078Z,812.00
2018-07-17T04:46:58.547Z,820.00
2018-07-17T04:47:58.675Z,840.00
2018-07-17T04:48:58.816Z,880.00
2018-07-17T04:49:58.949Z,872.00
2018-07-17T04:50:59.089Z,888.00
2018-07-17T04:51:59.226Z,936.00
2018-07-17T04:52:59.366Z,952.00
2018-07-17T04:53:59.501Z,960.00
2018-07-17T04:54:59.644Z,972.00
2018-07-17T04:55:59.781Z,984.00
2018-07-17T04:56:59.929Z,996.00
2018-07-17T04:58:00.070Z,1004.00
2018-07-17T04:59:00.214Z,976.00
2018-07-17T05:00:00.359Z,944.00
2018-07-17T05:01:00.578Z,992.00
2018-07-17T05:02:00.686Z,1008.00
2018-07-17T05:03:00.725Z,1024.00
2018-07-17T05:04:00.866Z,1036.00
2018-07-17T05:05:01.008Z,1044.00
2018-07-17T05:06:01.142Z,1052.00
2018-07-17T05:07:01.285Z,1060.00
2018-07-17T05:08:01.423Z,1068.00
2018-07-17T05:09:01.565Z,1076.00
2018-07-17T05:10:01.706Z,1088.00
2018-07-17T05:11:01.871Z,1096.00
2018-07-17T05:12:02.012Z,1108.00
2018-07-17T05:13:02.260Z,1120.00
2018-07-17T05:14:02.289Z,1128.00
2018-07-17T05:15:02.428Z,1136.00
2018-07-17T05:16:02.563Z,1140.00
2018-07-17T05:17:02.706Z,1144.00
2018-07-17T05:18:02.846Z,1152.00
2018-07-17T05:19:02.986Z,1152.00
2018-07-17T05:20:03.154Z,1156.00
2018-07-17T05:21:03.286Z,1164.00
2018-07-17T05:22:03.424Z,1172.00
2018-07-17T05:23:03.605Z,1176.00
2018-07-17T05:24:03.720Z,1184.00
2018-07-17T05:25:03.855Z,1192.00
2018-07-17T05:26:04.003Z,1200.00
2018-07-17T05:27:04.159Z,1208.00
2018-07-17T05:28:04.297Z,1216.00
2018-07-17T05:29:04.513Z,1224.00
2018-07-17T05:30:04.572Z,1228.00
2018-07-17T05:31:04.741Z,1232.00
2018-07-17T05:32:04.877Z,1240.00
2018-07-17T05:33:05.016Z,1240.00
2018-07-17T05:34:05.167Z,1232.00
2018-07-17T05:35:05.368Z,1228.00
2018-07-17T05:36:05.467Z,1228.00
2018-07-17T05:37:05.605Z,1244.00
2018-07-17T05:38:05.769Z,1252.00
2018-07-17T05:39:05.908Z,1272.00
2018-07-17T05:40:06.052Z,1296.00
2018-07-17T05:41:06.190Z,1312.00
2018-07-17T05:42:06.432Z,1324.00
2018-07-17T05:43:06.497Z,1332.00
2018-07-17T05:44:06.632Z,1336.00
2018-07-17T05:45:06.784Z,1344.00
2018-07-17T05:46:06.917Z,1240.00
2018-07-17T05:47:07.049Z,1244.00
2018-07-17T05:48:07.192Z,1248.00
2018-07-17T05:49:07.331Z,1244.00
2018-07-17T05:50:07.470Z,1264.00
2018-07-17T05:51:07.915Z,1252.00
2018-07-17T05:52:07.806Z,1388.00
2018-07-17T05:53:07.941Z,1388.00
2018-07-17T05:54:08.088Z,1396.00
2018-07-17T05:55:08.220Z,1400.00
2018-07-17T05:56:08.365Z,1404.00
2018-07-17T05:57:08.506Z,1408.00
2018-07-17T05:58:08.635Z,1412.00
2018-07-17T05:59:08.775Z,1412.00
2018-07-17T06:00:08.938Z,1416.00
2018-07-17T06:01:09.072Z,1420.00
2018-07-17T06:02:09.205Z,1420.00
2018-07-17T06:03:09.348Z,1424.00
2018-07-17T06:04:09.491Z,1424.00
2018-07-17T06:05:09.630Z,1428.00
2018-07-17T06:06:09.767Z,1432.00
2018-07-17T06:07:09.917Z,1428.00
2018-07-17T06:08:10.051Z,1428.00
2018-07-17T06:09:10.195Z,1436.00
2018-07-17T06:10:10.400Z,1440.00
2018-07-17T06:11:10.467Z,1440.00
2018-07-17T06:12:10.629Z,1440.00
2018-07-17T06:13:10.763Z,1440.00
2018-07-17T06:14:10.904Z,1444.00
2018-07-17T06:15:11.159Z,1444.00
2018-07-17T06:16:11.160Z,1448.00
2018-07-17T06:17:11.305Z,1452.00
2018-07-17T06:18:11.439Z,1460.00
2018-07-17T06:19:11.611Z,1472.00
2018-07-17T06:20:11.736Z,1480.00
2018-07-17T06:21:11.878Z,1484.00
2018-07-17T06:22:12.071Z,1484.00
2018-07-17T06:23:12.212Z,1488.00
2018-07-17T06:24:12.315Z,1492.00
2018-07-17T06:25:12.537Z,1488.00
2018-07-17T06:26:12.594Z,1488.00
2018-07-17T06:27:12.757Z,1488.00
2018-07-17T06:28:12.878Z,1496.00
2018-07-17T06:29:13.017Z,1500.00
2018-07-17T06:30:13.182Z,1504.00
2018-07-17T06:31:13.315Z,1512.00
2018-07-17T06:32:13.456Z,1512.00
2018-07-17T06:33:13.600Z,1512.00
2018-07-17T06:34:13.786Z,1528.00
2018-07-17T06:35:13.900Z,1528.00
2018-07-17T06:36:14.037Z,1524.00
2018-07-17T06:37:14.206Z,1524.00
2018-07-17T06:38:14.346Z,1524.00
2018-07-17T06:39:14.484Z,1528.00
2018-07-17T06:40:14.621Z,1528.00
2018-07-17T06:41:14.783Z,1508.00
2018-07-17T06:42:14.917Z,1500.00
2018-07-17T06:43:15.058Z,1500.00
2018-07-17T06:44:15.196Z,1504.00
2018-07-17T06:45:15.331Z,1508.00
2018-07-17T06:46:15.466Z,1508.00
2018-07-17T06:47:15.607Z,1508.00
2018-07-17T06:48:15.750Z,1508.00
2018-07-17T06:49:15.913Z,1492.00
2018-07-17T06:50:16.136Z,1480.00
2018-07-17T06:51:16.197Z,1460.00
2018-07-17T06:52:16.334Z,1452.00
2018-07-17T06:53:16.471Z,1436.00
2018-07-17T06:54:16.610Z,1412.00
2018-07-17T06:55:16.752Z,1404.00
2018-07-17T06:56:16.887Z,1416.00
2018-07-17T06:57:17.103Z,1424.00
2018-07-17T06:58:17.174Z,1440.00
2018-07-17T06:59:17.306Z,1452.00
2018-07-17T07:00:17.452Z,1456.00
2018-07-17T07:01:17.591Z,1460.00
2018-07-17T07:02:17.735Z,1504.00
2018-07-17T07:03:17.876Z,1520.00
2018-07-17T07:04:18.015Z,1528.00
2018-07-17T07:05:18.159Z,1528.00
2018-07-17T07:06:18.292Z,1552.00
2018-07-17T07:07:18.433Z,1564.00
2018-07-17T07:08:18.582Z,1564.00
2018-07-17T07:09:18.719Z,1564.00
2018-07-17T07:10:18.860Z,1568.00
2018-07-17T07:11:19.081Z,1564.00
2018-07-17T07:12:19.165Z,1576.00
2018-07-17T07:13:19.308Z,1576.00
2018-07-17T07:14:19.440Z,1584.00
2018-07-17T07:15:19.590Z,1584.00
2018-07-17T07:16:19.734Z,1580.00
2018-07-17T07:17:19.878Z,1584.00
2018-07-17T07:18:20.016Z,1596.00
2018-07-17T07:19:20.159Z,1600.00
2018-07-17T07:20:20.356Z,1608.00
2018-07-17T07:21:20.495Z,1624.00
2018-07-17T07:22:20.632Z,1628.00
2018-07-17T07:23:20.843Z,1628.00
2018-07-17T07:24:20.962Z,1636.00
2018-07-17T07:25:21.103Z,1648.00
2018-07-17T07:26:21.244Z,916.00
2018-07-17T07:27:21.382Z,1656.00
2018-07-17T07:28:21.525Z,1656.00
2018-07-17T07:29:21.660Z,1664.00
2018-07-17T07:30:21.801Z,1668.00
2018-07-17T07:31:21.945Z,1672.00
2018-07-17T07:32:22.090Z,1676.00
2018-07-17T07:33:22.239Z,1680.00
2018-07-17T07:34:22.383Z,1680.00
2018-07-17T07:35:22.548Z,1688.00
2018-07-17T07:36:22.695Z,1688.00
2018-07-17T07:37:22.904Z,1692.00
2018-07-17T07:38:23.009Z,1700.00
2018-07-17T07:39:23.146Z,1696.00
2018-07-17T07:40:23.328Z,1700.00
2018-07-17T07:41:23.466Z,1696.00
2018-07-17T07:42:23.610Z,1704.00
2018-07-17T07:43:23.750Z,1712.00
2018-07-17T07:44:23.917Z,1712.00
2018-07-17T07:45:24.045Z,1720.00
2018-07-17T07:46:24.188Z,1728.00
2018-07-17T07:47:24.361Z,1736.00
2018-07-17T07:48:24.497Z,1748.00
2018-07-17T07:49:24.637Z,1748.00
2018-07-17T07:50:24.798Z,1756.00
2018-07-17T07:51:24.939Z,1768.00
2018-07-17T07:52:25.079Z,1780.00
2018-07-17T07:53:25.220Z,1788.00
2018-07-17T07:54:25.361Z,1788.00
2018-07-17T07:55:25.515Z,1792.00
2018-07-17T07:56:25.658Z,1796.00
2018-07-17T07:57:25.800Z,1800.00
2018-07-17T07:58:25.935Z,1812.00
2018-07-17T07:59:26.084Z,1812.00
2018-07-17T08:00:26.248Z,1816.00
2018-07-17T08:01:26.378Z,1820.00
2018-07-17T08:02:26.529Z,1828.00
2018-07-17T08:03:26.732Z,1828.00
2018-07-17T08:04:26.847Z,1836.00
2018-07-17T08:05:27.012Z,1848.00
2018-07-17T08:06:27.168Z,1856.00
2018-07-17T08:07:27.311Z,1864.00
2018-07-17T08:08:27.447Z,1872.00
2018-07-17T08:09:27.592Z,1884.00
2018-07-17T08:10:27.761Z,1892.00
2018-07-17T08:11:27.902Z,1908.00
2018-07-17T08:12:28.045Z,1912.00
2018-07-17T08:13:28.188Z,1920.00
2018-07-17T08:14:28.322Z,1916.00
2018-07-17T08:15:28.460Z,1932.00
2018-07-17T08:16:28.598Z,1932.00
2018-07-17T08:17:28.774Z,1912.00
2018-07-17T08:18:28.908Z,1940.00
2018-07-17T08:19:29.044Z,1944.00
2018-07-17T08:20:29.191Z,1940.00
2018-07-17T08:21:29.323Z,1940.00
2018-07-17T08:22:29.462Z,1948.00
2018-07-17T08:23:29.609Z,1952.00
2018-07-17T08:24:29.745Z,1952.00
2018-07-17T08:25:29.919Z,1964.00
2018-07-17T08:26:30.050Z,1972.00
2018-07-17T08:27:30.240Z,1968.00
2018-07-17T08:28:30.385Z,1960.00
2018-07-17T08:29:30.554Z,1968.00
2018-07-17T08:30:30.689Z,1972.00
2018-07-17T08:31:30.842Z,1976.00
2018-07-17T08:32:31.002Z,1984.00
2018-07-17T08:33:31.148Z,1996.00
2018-07-17T08:34:31.289Z,2008.00
2018-07-17T08:35:31.443Z,2024.00
2018-07-17T08:36:31.594Z,2024.00
2018-07-17T08:37:31.731Z,2032.00
2018-07-17T08:38:31.874Z,2040.00
2018-07-17T08:39:32.021Z,2048.00
2018-07-17T08:40:32.160Z,2056.00
2018-07-17T08:41:32.299Z,2064.00
2018-07-17T08:42:32.451Z,2076.00
2018-07-17T08:43:32.614Z,2080.00
2018-07-17T08:44:32.759Z,2080.00
2018-07-17T08:45:32.902Z,2008.00
2018-07-17T08:46:33.051Z,2092.00
2018-07-17T08:47:33.193Z,2096.00
2018-07-17T08:48:33.484Z,2100.00
2018-07-17T08:49:33.481Z,2100.00
2018-07-17T08:50:33.632Z,2100.00
2018-07-17T08:51:33.768Z,2100.00
2018-07-17T08:52:33.910Z,2100.00
2018-07-17T08:53:34.055Z,2116.00
2018-07-17T08:54:34.232Z,2116.00
2018-07-17T08:55:34.340Z,2116.00
2018-07-17T08:56:34.487Z,2112.00
2018-07-17T08:57:34.626Z,2116.00
2018-07-17T08:58:34.775Z,2120.00
2018-07-17T08:59:34.975Z,2124.00
2018-07-17T09:00:35.051Z,2136.00
2018-07-17T09:01:35.134Z,2120.00
2018-07-17T09:02:35.291Z,2140.00
2018-07-17T09:03:35.419Z,2144.00
2018-07-17T09:04:35.561Z,2164.00
2018-07-17T09:05:35.707Z,2180.00
2018-07-17T09:06:35.854Z,2196.00
2018-07-17T09:07:35.993Z,2232.00
2018-07-17T09:08:36.137Z,2256.00
2018-07-17T09:09:36.278Z,2272.00
2018-07-17T09:10:36.428Z,2288.00
2018-07-17T09:11:36.573Z,2296.00
2018-07-17T09:12:36.719Z,2316.00
2018-07-17T09:13:36.873Z,2328.00
2018-07-17T09:14:37.013Z,2344.00
2018-07-17T09:15:37.162Z,2360.00
2018-07-17T09:16:37.303Z,2380.00
2018-07-17T09:17:37.455Z,2396.00
2018-07-17T09:18:37.631Z,2332.00
2018-07-17T09:19:37.730Z,2368.00
2018-07-17T09:20:37.876Z,2368.00
2018-07-17T09:21:38.033Z,2396.00
2018-07-17T09:22:38.213Z,2432.00
2018-07-17T09:23:38.312Z,2424.00
2018-07-17T09:24:38.452Z,2428.00
2018-07-17T09:25:38.600Z,2376.00
2018-07-17T09:26:38.812Z,2400.00
2018-07-17T09:27:38.856Z,2388.00
2018-07-17T09:28:39.047Z,2432.00
2018-07-17T09:29:39.219Z,2468.00
2018-07-17T09:30:39.284Z,2488.00
2018-07-17T09:31:39.432Z,2524.00
2018-07-17T09:32:39.601Z,2292.00
2018-07-17T09:33:39.731Z,2572.00
2018-07-17T09:34:39.850Z,2628.00
2018-07-17T09:35:39.991Z,2608.00
2018-07-17T09:36:40.135Z,2604.00
2018-07-17T09:37:40.280Z,2356.00
2018-07-17T09:38:40.422Z,2284.00
2018-07-17T09:39:40.560Z,2312.00
2018-07-17T09:40:40.701Z,2348.00
2018-07-17T09:41:40.848Z,2380.00
2018-07-17T09:42:40.989Z,2416.00
2018-07-17T09:43:41.138Z,2396.00
2018-07-17T09:44:41.280Z,2640.00
2018-07-17T09:45:41.420Z,2688.00
2018-07-17T09:46:41.563Z,2768.00
2018-07-17T09:47:41.708Z,2772.00
2018-07-17T09:48:42.078Z,2704.00
2018-07-17T09:49:41.986Z,2728.00
2018-07-17T09:50:42.139Z,2724.00
2018-07-17T09:51:42.270Z,2708.00
2018-07-17T09:52:42.450Z,2772.00
2018-07-17T09:53:42.590Z,2752.00
2018-07-17T09:54:42.744Z,2796.00
2018-07-17T09:55:42.888Z,2784.00
2018-07-17T09:56:43.040Z,2812.00
2018-07-17T09:57:43.192Z,2788.00
2018-07-17T09:58:43.328Z,2920.00
2018-07-17T09:59:43.474Z,2976.00
2018-07-17T10:00:43.621Z,2984.00
2018-07-17T10:01:43.760Z,2928.00
2018-07-17T10:02:43.900Z,2848.00
2018-07-17T10:03:44.047Z,2852.00
2018-07-17T10:04:44.251Z,2880.00
2018-07-17T10:05:44.330Z,2896.00
2018-07-17T10:06:44.478Z,2912.00
2018-07-17T10:07:44.635Z,2592.00
2018-07-17T10:08:44.778Z,2572.00
2018-07-17T10:09:44.915Z,2828.00
2018-07-17T10:10:45.067Z,2540.00
2018-07-17T10:11:45.210Z,2580.00
2018-07-17T10:12:45.351Z,2820.00
2018-07-17T10:13:45.495Z,2832.00
2018-07-17T10:14:45.671Z,2828.00
2018-07-17T10:15:45.805Z,2660.00
2018-07-17T10:16:45.950Z,2840.00
2018-07-17T10:17:46.091Z,2868.00
2018-07-17T10:18:46.316Z,2880.00
2018-07-17T10:19:46.376Z,2880.00
2018-07-17T10:20:46.522Z,2952.00
2018-07-17T10:21:46.675Z,2996.00
2018-07-17T10:22:46.825Z,2980.00
2018-07-17T10:23:46.972Z,3004.00
2018-07-17T10:24:47.111Z,3000.00
2018-07-17T10:25:47.301Z,3052.00
2018-07-17T10:26:47.466Z,3104.00
2018-07-17T10:27:47.574Z,2764.00
2018-07-17T10:28:47.724Z,2768.00
2018-07-17T10:29:47.886Z,3088.00
2018-07-17T10:30:48.029Z,3144.00
2018-07-17T10:31:48.169Z,3112.00
2018-07-17T10:32:48.315Z,3216.00
2018-07-17T10:33:48.461Z,3244.00
2018-07-17T10:34:48.618Z,3236.00
2018-07-17T10:35:48.775Z,3308.00
2018-07-17T10:36:48.909Z,3348.00
2018-07-17T10:37:49.074Z,3388.00
2018-07-17T10:38:49.213Z,3384.00
2018-07-17T10:39:49.360Z,3424.00
2018-07-17T10:40:49.512Z,3456.00
2018-07-17T10:41:49.670Z,3444.00
2018-07-17T10:42:49.805Z,3520.00
2018-07-17T10:43:49.961Z,3528.00
2018-07-17T10:44:50.107Z,3628.00
2018-07-17T10:45:50.263Z,3576.00
2018-07-17T10:46:50.403Z,3632.00
2018-07-17T10:47:50.558Z,3636.00
2018-07-17T10:48:50.693Z,3668.00
2018-07-17T10:49:50.868Z,3712.00
2018-07-17T10:50:51.009Z,3756.00
2018-07-17T10:51:51.156Z,3824.00
2018-07-17T10:52:51.297Z,3860.00
2018-07-17T10:53:51.474Z,3864.00
2018-07-17T10:54:51.613Z,3904.00
2018-07-17T10:55:51.760Z,3968.00
2018-07-17T10:56:51.906Z,3996.00
2018-07-17T10:57:52.058Z,4016.00
2018-07-17T10:58:52.197Z,4020.00
2018-07-17T10:59:52.341Z,4032.00
2018-07-17T11:00:52.495Z,4048.00
2018-07-17T11:01:52.640Z,4084.00
2018-07-17T11:02:52.785Z,4056.00
2018-07-17T11:03:52.927Z,4100.00
2018-07-17T11:04:53.070Z,4072.00
2018-07-17T11:05:53.234Z,4084.00
2018-07-17T11:06:53.380Z,4092.00
2018-07-17T11:07:53.521Z,4080.00
2018-07-17T11:08:53.668Z,4116.00
2018-07-17T11:09:53.839Z,4164.00
2018-07-17T11:10:53.959Z,4212.00
2018-07-17T11:11:54.098Z,4240.00
2018-07-17T11:12:54.246Z,4272.00
2018-07-17T11:13:54.401Z,4296.00
2018-07-17T11:14:54.561Z,4316.00
2018-07-17T11:15:54.696Z,4376.00
2018-07-17T11:16:54.848Z,4420.00
2018-07-17T11:17:55.003Z,4464.00
2018-07-17T11:18:55.158Z,4576.00
2018-07-17T11:19:55.309Z,4576.00
2018-07-17T11:20:55.445Z,4628.00
2018-07-17T11:21:55.590Z,4688.00
2018-07-17T11:22:55.736Z,4748.00
2018-07-17T11:23:55.877Z,4936.00
2018-07-17T11:24:56.021Z,4912.00
2018-07-17T11:25:56.165Z,4980.00
2018-07-17T11:26:56.312Z,4976.00
2018-07-17T11:27:56.461Z,4996.00
2018-07-17T11:28:56.614Z,5112.00
2018-07-17T11:29:56.765Z,5472.00
2018-07-17T11:30:56.907Z,5244.00
2018-07-17T11:31:57.072Z,5284.00
2018-07-17T11:32:57.204Z,5312.00
2018-07-17T11:33:57.353Z,5316.00
2018-07-17T11:34:57.507Z,5272.00
2018-07-17T11:35:57.654Z,5300.00
2018-07-17T11:36:57.798Z,5336.00
2018-07-17T11:37:57.944Z,5392.00
2018-07-17T11:38:58.092Z,5372.00
2018-07-17T11:39:58.236Z,5404.00
2018-07-17T11:40:58.380Z,5424.00
2018-07-17T11:41:58.527Z,5468.00
2018-07-17T11:42:58.676Z,5436.00
2018-07-17T11:43:58.823Z,5536.00
2018-07-17T11:44:58.969Z,5612.00
2018-07-17T11:45:59.163Z,5556.00
2018-07-17T11:46:59.287Z,5524.00
2018-07-17T11:47:59.424Z,5536.00
2018-07-17T11:48:59.581Z,5508.00
2018-07-17T11:49:59.767Z,5504.00
2018-07-17T11:50:59.891Z,5552.00
2018-07-17T11:52:00.046Z,5636.00
2018-07-17T11:53:00.183Z,5616.00
2018-07-17T11:54:00.339Z,5788.00
2018-07-17T11:55:00.491Z,5912.00
2018-07-17T11:56:00.635Z,6156.00
2018-07-17T11:57:00.778Z,6260.00
2018-07-17T11:58:00.968Z,6336.00
2018-07-17T11:59:01.194Z,6420.00
2018-07-17T12:00:01.253Z,5980.00
2018-07-17T12:01:01.398Z,6004.00
2018-07-17T12:02:01.586Z,5968.00
2018-07-17T12:03:01.696Z,5508.00
2018-07-17T12:04:01.845Z,5676.00
2018-07-17T12:05:01.989Z,5684.00
2018-07-17T12:06:02.205Z,5728.00
2018-07-17T12:07:02.282Z,5556.00
2018-07-17T12:08:02.427Z,5372.00
2018-07-17T12:09:02.605Z,4776.00
2018-07-17T12:10:02.746Z,4960.00
2018-07-17T12:11:02.893Z,5212.00
2018-07-17T12:12:03.043Z,5552.00
2018-07-17T12:13:03.222Z,5752.00
2018-07-17T12:14:03.351Z,6080.00
2018-07-17T12:15:03.493Z,6332.00
2018-07-17T12:16:03.642Z,6380.00
2018-07-17T12:17:03.790Z,6600.00
2018-07-17T12:18:03.933Z,6908.00
2018-07-17T12:19:04.082Z,6996.00
2018-07-17T12:20:04.413Z,5952.00
2018-07-17T12:21:04.375Z,6228.00
2018-07-17T12:22:04.526Z,5812.00
2018-07-17T12:23:04.668Z,5984.00
2018-07-17T12:24:04.823Z,6092.00
2018-07-17T12:25:04.971Z,6616.00
2018-07-17T12:26:05.115Z,6592.00
2018-07-17T12:27:05.267Z,6352.00
2018-07-17T12:28:05.440Z,6172.00
2018-07-17T12:29:05.562Z,6280.00
2018-07-17T12:30:05.711Z,5784.00
2018-07-17T12:31:05.863Z,6116.00